createdAt,value
2018-11-20T00:02:22.437Z,4.30
2018-11-20T00:05:20.056Z,4.24
2018-11-20T00:08:07.073Z,4.14
2018-11-20T00:10:54.198Z,4.20
2018-11-20T00:13:41.298Z,4.24
2018-11-20T00:16:28.462Z,4.21
2018-11-20T00:19:15.963Z,4.16
2018-11-20T00:22:03.107Z,4.13
2018-11-20T00:24:41.975Z,4.16
2018-11-20T00:27:29.083Z,4.09
2018-11-20T00:30:16.230Z,4.20
2018-11-20T00:32:52.718Z,4.22
2018-11-20T00:35:30.193Z,4.18
2018-11-20T00:38:17.345Z,4.16
2018-11-20T00:41:04.495Z,4.13
2018-11-20T00:43:51.582Z,4.17
2018-11-20T00:46:38.973Z,4.16
2018-11-20T00:49:26.099Z,4.13
2018-11-20T00:52:13.212Z,4.04
2018-11-20T00:55:00.305Z,4.06
2018-11-20T00:57:47.435Z,4.03
2018-11-20T01:00:53.439Z,4.08
2018-11-20T01:03:29.697Z,4.03
2018-11-20T01:06:16.815Z,4.00
2018-11-20T01:09:04.008Z,3.99
2018-11-20T01:11:51.201Z,3.90
2018-11-20T01:17:40.035Z,3.95
2018-11-20T01:20:27.138Z,3.96
2018-11-20T01:23:14.649Z,3.92
2018-11-20T01:26:20.683Z,3.93
2018-11-20T01:29:07.809Z,4.00
2018-11-20T01:32:04.320Z,3.94
2018-11-20T01:34:51.422Z,4.02
2018-11-20T01:37:57.507Z,4.04
2018-11-20T01:40:44.937Z,3.99
2018-11-20T01:43:32.179Z,3.98
2018-11-20T01:46:19.354Z,3.99
2018-11-20T01:49:06.715Z,3.97
2018-11-20T01:51:53.824Z,3.92
2018-11-20T01:54:30.712Z,3.94
2018-11-20T01:57:17.892Z,3.81
2018-11-20T02:00:04.969Z,3.83
2018-11-20T02:02:52.070Z,3.85
2018-11-20T02:05:39.169Z,3.87
2018-11-20T02:08:26.679Z,3.92
2018-11-20T02:11:32.723Z,3.92
2018-11-20T02:14:20.942Z,3.91
2018-11-20T02:17:12.244Z,3.91
2018-11-20T02:19:59.468Z,3.92
2018-11-20T02:22:46.978Z,3.97
2018-11-20T02:25:34.127Z,4.02
2018-11-20T02:28:40.172Z,4.03
2018-11-20T02:31:27.315Z,3.90
2018-11-20T02:34:14.471Z,3.96
2018-11-20T02:37:01.610Z,4.04
2018-11-20T02:39:48.688Z,4.05
2018-11-20T02:42:54.692Z,4.03
2018-11-20T02:45:41.801Z,4.05
2018-11-20T02:48:29.432Z,3.96
2018-11-20T02:51:16.837Z,3.95
2018-11-20T02:54:03.982Z,3.84
2018-11-20T02:57:10.055Z,3.94
2018-11-20T02:59:57.359Z,3.96
2018-11-20T03:02:44.465Z,3.92
2018-11-20T03:05:31.562Z,3.90
2018-11-20T03:08:18.680Z,3.90
2018-11-20T03:11:05.993Z,3.91
2018-11-20T03:14:11.982Z,3.84
2018-11-20T03:16:59.094Z,3.88
2018-11-20T03:19:46.490Z,3.87
2018-11-20T03:22:33.609Z,3.86
2018-11-20T03:25:39.617Z,3.86
2018-11-20T03:28:27.137Z,3.87
2018-11-20T03:31:04.295Z,3.89
2018-11-20T03:33:51.377Z,3.93
2018-11-20T03:36:38.584Z,3.87
2018-11-20T03:39:27.445Z,3.79
2018-11-20T03:42:14.916Z,3.82
2018-11-20T03:45:02.041Z,3.86
2018-11-20T03:47:49.565Z,3.92
2018-11-20T03:50:55.603Z,3.87
2018-11-20T03:53:42.738Z,3.96
2018-11-20T03:56:29.836Z,3.93
2018-11-20T03:59:24.904Z,3.88
2018-11-20T04:02:11.996Z,3.91
2018-11-20T04:04:59.107Z,3.98
2018-11-20T04:08:05.185Z,3.96
2018-11-20T04:10:52.252Z,3.85
2018-11-20T04:13:58.257Z,3.83
2018-11-20T04:16:45.368Z,3.71
2018-11-20T04:19:32.460Z,3.76
2018-11-20T04:22:20.174Z,3.65
2018-11-20T04:25:01.877Z,3.62
2018-11-20T04:27:49.345Z,3.63
2018-11-20T04:30:55.368Z,3.59
2018-11-20T04:34:01.358Z,3.61
2018-11-20T04:36:49.969Z,3.66
2018-11-20T04:39:37.100Z,3.62
2018-11-20T04:42:24.187Z,3.68
2018-11-20T04:45:30.219Z,3.68
2018-11-20T04:48:17.395Z,3.75
2018-11-20T04:50:54.422Z,3.80
2018-11-20T04:53:41.530Z,3.82
2018-11-20T04:56:28.636Z,3.79
2018-11-20T04:59:15.723Z,3.82
2018-11-20T05:02:21.782Z,3.78
2018-11-20T05:05:08.876Z,3.76
2018-11-20T05:07:56.207Z,3.76
2018-11-20T05:11:02.219Z,3.83
2018-11-20T05:13:49.320Z,3.90
2018-11-20T05:16:36.450Z,3.93
2018-11-20T05:19:23.617Z,3.95
2018-11-20T05:22:29.621Z,3.89
2018-11-20T05:25:17.058Z,3.88
2018-11-20T05:28:04.194Z,3.91
2018-11-20T05:30:51.400Z,3.90
2018-11-20T05:33:38.519Z,3.86
2018-11-20T05:36:26.097Z,3.88
2018-11-20T05:39:13.244Z,3.87
2018-11-20T05:42:19.245Z,3.91
2018-11-20T05:45:06.686Z,3.88
2018-11-20T05:47:53.823Z,3.90
2018-11-20T05:50:41.158Z,3.91
2018-11-20T05:53:25.651Z,3.90
2018-11-20T05:56:12.833Z,3.93
2018-11-20T05:59:18.827Z,3.94
2018-11-20T06:01:54.820Z,3.98
2018-11-20T06:04:41.873Z,3.93
2018-11-20T06:07:47.966Z,3.99
2018-11-20T06:10:53.944Z,4.03
2018-11-20T06:13:41.489Z,4.05
2018-11-20T06:16:28.545Z,4.03
2018-11-20T06:19:15.694Z,4.12
2018-11-20T06:22:03.090Z,4.14
2018-11-20T06:25:09.128Z,4.12
2018-11-20T06:28:15.145Z,4.17
2018-11-20T06:31:21.122Z,4.15
2018-11-20T06:34:27.259Z,4.21
2018-11-20T06:40:36.997Z,4.21
2018-11-20T06:43:24.055Z,4.19
2018-11-20T06:46:30.132Z,4.24
2018-11-20T06:49:17.283Z,4.23
2018-11-20T06:52:23.290Z,4.25
2018-11-20T06:55:10.421Z,4.20
2018-11-20T06:57:57.515Z,4.19
2018-11-20T07:00:44.617Z,4.20
2018-11-20T07:03:31.750Z,4.25
2018-11-20T07:06:37.735Z,4.29
2018-11-20T07:09:26.399Z,4.38
2018-11-20T07:12:13.991Z,4.42
2018-11-20T07:15:01.126Z,4.55
2018-11-20T07:17:48.192Z,4.56
2018-11-20T07:20:35.696Z,4.57
2018-11-20T07:23:22.816Z,4.60
2018-11-20T07:26:09.960Z,4.59
2018-11-20T07:28:57.086Z,4.63
2018-11-20T07:32:03.188Z,4.77
2018-11-20T07:35:09.192Z,4.72
2018-11-20T07:37:46.729Z,4.64
2018-11-20T07:40:52.734Z,4.73
2018-11-20T07:43:39.923Z,4.70
2018-11-20T07:46:26.965Z,4.64
2018-11-20T07:49:14.029Z,4.62
2018-11-20T07:52:01.170Z,4.64
2018-11-20T07:54:48.228Z,4.67
2018-11-20T07:57:35.501Z,4.69
2018-11-20T08:00:13.615Z,4.67
2018-11-20T08:03:00.771Z,4.77
2018-11-20T08:06:06.822Z,4.66
2018-11-20T08:08:53.893Z,4.66
2018-11-20T08:11:41.128Z,4.75
2018-11-20T08:14:28.230Z,4.81
2018-11-20T08:17:15.626Z,4.89
2018-11-20T08:20:02.713Z,4.98
2018-11-20T08:22:50.270Z,5.02
2018-11-20T08:25:49.979Z,5.14
2018-11-20T08:28:37.042Z,5.10
2018-11-20T08:31:24.355Z,5.22
2018-11-20T08:34:11.456Z,5.31
2018-11-20T08:37:17.477Z,5.37
2018-11-20T08:40:04.519Z,5.47
2018-11-20T08:42:51.626Z,5.56
2018-11-20T08:45:52.746Z,5.55
2018-11-20T08:48:39.880Z,5.50
2018-11-20T08:51:45.881Z,5.61
2018-11-20T08:54:32.989Z,5.51
2018-11-20T08:57:20.364Z,5.57
2018-11-20T08:59:58.077Z,5.62
2018-11-20T09:02:45.411Z,5.64
2018-11-20T09:05:32.366Z,5.68
2018-11-20T09:08:25.390Z,5.78
2018-11-20T09:11:11.502Z,5.93
2018-11-20T09:14:17.536Z,5.84
2018-11-20T09:17:04.670Z,5.73
2018-11-20T09:19:51.806Z,5.88
2018-11-20T09:22:57.821Z,5.81
2018-11-20T09:25:45.086Z,5.87
2018-11-20T09:28:32.596Z,5.97
2018-11-20T09:31:19.701Z,6.21
2018-11-20T09:34:25.790Z,6.26
2018-11-20T09:37:32.118Z,6.48
2018-11-20T09:40:31.707Z,6.63
2018-11-20T09:43:09.590Z,6.91
2018-11-20T09:46:04.124Z,7.17
2018-11-20T09:48:51.197Z,7.18
2018-11-20T09:51:38.319Z,7.33
2018-11-20T09:54:25.436Z,7.29
2018-11-20T09:57:12.938Z,7.30
2018-11-20T10:00:00.189Z,7.39
2018-11-20T10:02:47.203Z,7.58
2018-11-20T10:05:34.412Z,7.58
2018-11-20T10:08:21.601Z,7.78
2018-11-20T10:11:01.465Z,7.86
2018-11-20T10:13:46.830Z,7.79
2018-11-20T10:16:33.927Z,7.74
2018-11-20T10:19:21.305Z,7.79
2018-11-20T10:22:08.457Z,7.98
2018-11-20T10:24:55.728Z,7.82
2018-11-20T10:27:38.035Z,7.91
2018-11-20T10:30:44.060Z,7.96
2018-11-20T10:33:31.181Z,8.06
2018-11-20T10:36:05.669Z,8.19
2018-11-20T10:39:11.718Z,8.26
2018-11-20T10:42:17.711Z,8.13
2018-11-20T10:45:05.203Z,8.15
2018-11-20T10:48:11.225Z,7.83
2018-11-20T10:50:58.328Z,7.84
2018-11-20T10:53:45.584Z,7.80
2018-11-20T10:56:32.691Z,8.07
2018-11-20T10:59:20.453Z,8.13
2018-11-20T11:02:07.935Z,8.10
2018-11-20T11:04:55.204Z,8.17
2018-11-20T11:07:42.291Z,8.30
2018-11-20T11:10:29.315Z,8.28
2018-11-20T11:13:16.789Z,8.16
2018-11-20T11:16:04.018Z,8.11
2018-11-20T11:18:51.096Z,8.18
2018-11-20T11:21:38.181Z,8.16
2018-11-20T11:24:25.313Z,8.04
2018-11-20T11:27:14.346Z,8.07
2018-11-20T11:30:01.421Z,8.15
2018-11-20T11:32:48.884Z,8.00
2018-11-20T11:35:35.989Z,8.02
2018-11-20T11:38:23.497Z,8.06
2018-11-20T11:41:29.522Z,8.12
2018-11-20T11:44:16.627Z,8.05
2018-11-20T11:47:03.707Z,8.13
2018-11-20T11:49:50.846Z,8.06
2018-11-20T11:52:37.991Z,7.92
2018-11-20T11:55:25.259Z,7.98
2018-11-20T11:58:12.436Z,8.02
2018-11-20T12:00:59.766Z,7.99
2018-11-20T12:03:47.048Z,7.93
2018-11-20T12:06:34.303Z,7.95
2018-11-20T12:09:21.563Z,7.92
2018-11-20T12:12:00.228Z,8.07
2018-11-20T12:14:51.359Z,8.04
2018-11-20T12:17:34.543Z,8.00
2018-11-20T12:20:21.902Z,8.03
2018-11-20T12:23:08.992Z,8.04
2018-11-20T12:25:56.234Z,8.07
2018-11-20T12:28:35.354Z,8.04
2018-11-20T12:31:33.343Z,8.01
2018-11-20T12:34:20.499Z,7.97
2018-11-20T12:37:07.575Z,7.98
2018-11-20T12:39:43.679Z,7.97
2018-11-20T12:42:30.751Z,7.97
2018-11-20T12:45:18.239Z,8.00
2018-11-20T12:48:05.310Z,7.92
2018-11-20T12:50:52.490Z,8.03
2018-11-20T12:53:40.659Z,7.99
2018-11-20T12:56:26.851Z,7.91
2018-11-20T12:59:14.007Z,7.86
2018-11-20T13:02:00.372Z,7.87
2018-11-20T13:04:47.705Z,7.97
2018-11-20T13:07:35.475Z,7.98
2018-11-20T13:10:41.463Z,8.08
2018-11-20T13:13:28.702Z,7.94
2018-11-20T13:16:15.789Z,7.93
2018-11-20T13:19:02.940Z,7.92
2018-11-20T13:21:50.034Z,7.99
2018-11-20T13:24:37.108Z,8.01
2018-11-20T13:27:24.315Z,7.98
2018-11-20T13:30:30.308Z,8.08
2018-11-20T13:33:36.361Z,8.18
2018-11-20T13:36:23.669Z,8.10
2018-11-20T13:39:11.868Z,8.21
2018-11-20T13:41:58.666Z,8.15
2018-11-20T13:44:47.236Z,8.17
2018-11-20T13:47:34.348Z,8.23
2018-11-20T13:53:06.379Z,8.19
2018-11-20T13:55:53.466Z,8.27
2018-11-20T13:58:41.002Z,8.17
2018-11-20T14:01:28.125Z,8.10
2018-11-20T14:04:15.281Z,8.07
2018-11-20T14:07:02.329Z,8.06
2018-11-20T14:09:49.470Z,8.05
2018-11-20T14:12:36.633Z,7.93
2018-11-20T14:15:23.765Z,7.91
2018-11-20T14:18:11.202Z,7.77
2018-11-20T14:20:58.561Z,7.87
2018-11-20T14:23:45.877Z,7.87
2018-11-20T14:26:32.998Z,7.85
2018-11-20T14:29:35.409Z,7.88
2018-11-20T14:32:17.768Z,7.83
2018-11-20T14:35:04.990Z,7.95
2018-11-20T14:37:52.258Z,7.91
2018-11-20T14:40:39.405Z,7.80
2018-11-20T14:43:45.459Z,7.78
2018-11-20T14:46:51.491Z,7.80
2018-11-20T14:49:41.107Z,7.66
2018-11-20T14:52:25.855Z,7.63
2018-11-20T14:55:31.865Z,7.65
2018-11-20T14:58:18.962Z,7.64
2018-11-20T15:01:06.544Z,7.56
2018-11-20T15:03:53.630Z,7.57
2018-11-20T15:06:40.973Z,7.57
2018-11-20T15:09:47.021Z,7.53
2018-11-20T15:12:34.211Z,7.47
2018-11-20T15:15:40.288Z,7.32
2018-11-20T15:18:27.457Z,7.31
2018-11-20T15:21:33.455Z,7.26
2018-11-20T15:24:20.548Z,7.22
2018-11-20T15:27:26.598Z,7.17
2018-11-20T15:30:13.685Z,7.16
2018-11-20T15:33:00.788Z,7.12
2018-11-20T15:35:47.957Z,7.04
2018-11-20T15:38:35.106Z,6.90
2018-11-20T15:41:22.315Z,6.90
2018-11-20T15:44:09.469Z,6.68
2018-11-20T15:46:56.542Z,6.64
2018-11-20T15:50:02.519Z,6.51
2018-11-20T15:52:49.666Z,6.27
2018-11-20T15:55:36.907Z,6.11
2018-11-20T15:58:42.965Z,5.97
2018-11-20T16:01:30.166Z,5.91
2018-11-20T16:04:17.208Z,5.76
2018-11-20T16:07:04.383Z,5.62
2018-11-20T16:09:49.023Z,5.43
2018-11-20T16:12:55.023Z,5.40
2018-11-20T16:15:42.394Z,5.32
2018-11-20T16:18:29.550Z,5.28
2018-11-20T16:21:17.897Z,5.18
2018-11-20T16:24:03.970Z,5.11
2018-11-20T16:26:51.494Z,4.97
2018-11-20T16:29:29.300Z,4.86
2018-11-20T16:32:18.157Z,4.83
2018-11-20T16:35:05.445Z,4.78
2018-11-20T16:37:52.500Z,4.74
2018-11-20T16:40:39.585Z,4.70
2018-11-20T16:43:28.631Z,4.61
2018-11-20T16:46:13.998Z,4.55
2018-11-20T16:49:01.525Z,4.60
2018-11-20T16:51:48.613Z,4.58
2018-11-20T16:54:54.703Z,4.57
2018-11-20T16:57:44.345Z,4.47
2018-11-20T17:00:32.279Z,4.43
2018-11-20T17:03:19.105Z,4.34
2018-11-20T17:06:06.239Z,4.33
2018-11-20T17:09:12.767Z,4.12
2018-11-20T17:12:18.761Z,4.03
2018-11-20T17:15:06.017Z,4.03
2018-11-20T17:17:53.250Z,3.98
2018-11-20T17:20:33.584Z,3.85
2018-11-20T17:23:10.655Z,3.84
2018-11-20T17:25:57.764Z,3.89
2018-11-20T17:28:44.932Z,3.84
2018-11-20T17:31:55.403Z,3.76
2018-11-20T17:34:42.770Z,3.66
2018-11-20T17:37:29.893Z,3.64
2018-11-20T17:40:20.915Z,3.63
2018-11-20T17:43:04.310Z,3.60
2018-11-20T17:45:51.452Z,3.53
2018-11-20T17:48:38.959Z,3.52
2018-11-20T17:51:26.133Z,3.49
2018-11-20T17:54:32.114Z,3.43
2018-11-20T17:57:19.502Z,3.44
2018-11-20T18:00:06.573Z,3.39
2018-11-20T18:03:06.127Z,3.39
2018-11-20T18:06:12.112Z,3.37
2018-11-20T18:08:59.608Z,3.38
2018-11-20T18:11:47.142Z,3.28
2018-11-20T18:14:34.219Z,3.32
2018-11-20T18:17:40.284Z,3.22
2018-11-20T18:20:27.683Z,3.14
2018-11-20T18:23:14.985Z,3.13
2018-11-20T18:26:02.212Z,2.97
2018-11-20T18:29:08.341Z,3.00
2018-11-20T18:31:56.274Z,3.08
2018-11-20T18:34:44.474Z,2.99
2018-11-20T18:37:30.999Z,2.90
2018-11-20T18:40:37.215Z,2.96
2018-11-20T18:43:24.654Z,2.91
2018-11-20T18:46:05.448Z,2.86
2018-11-20T18:48:52.576Z,2.87
2018-11-20T18:51:39.693Z,2.88
2018-11-20T18:54:26.787Z,2.87
2018-11-20T18:57:32.799Z,2.84
2018-11-20T19:00:19.898Z,2.81
2018-11-20T19:03:07.415Z,2.81
2018-11-20T19:05:54.550Z,2.77
2018-11-20T19:08:41.745Z,2.68
2018-11-20T19:11:47.705Z,2.66
2018-11-20T19:14:34.859Z,2.57
2018-11-20T19:17:22.025Z,2.52
2018-11-20T19:20:28.065Z,2.48
2018-11-20T19:23:15.211Z,2.34
2018-11-20T19:26:02.543Z,2.33
2018-11-20T19:29:08.789Z,2.22
2018-11-20T19:31:55.975Z,2.15
2018-11-20T19:34:43.365Z,2.15
2018-11-20T19:37:30.774Z,2.11
2018-11-20T19:40:18.203Z,2.05
2018-11-20T19:43:24.218Z,1.95
2018-11-20T19:46:11.365Z,1.93
2018-11-20T19:48:58.799Z,2.04
2018-11-20T19:51:46.177Z,2.04
2018-11-20T19:54:34.216Z,2.00
2018-11-20T19:57:40.257Z,1.98
2018-11-20T20:00:46.259Z,1.78
2018-11-20T20:03:33.446Z,1.71
2018-11-20T20:06:20.638Z,1.66
2018-11-20T20:09:26.600Z,1.65
2018-11-20T20:12:32.630Z,1.71
2018-11-20T20:15:19.946Z,1.71
2018-11-20T20:18:26.035Z,1.75
2018-11-20T20:21:13.201Z,1.83
2018-11-20T20:24:00.479Z,1.83
2018-11-20T20:26:47.600Z,1.91
2018-11-20T20:29:53.673Z,1.93
2018-11-20T20:32:40.777Z,1.95
2018-11-20T20:35:27.895Z,1.94
2018-11-20T20:38:14.965Z,1.97
2018-11-20T20:41:02.201Z,2.02
2018-11-20T20:43:49.321Z,2.03
2018-11-20T20:46:36.534Z,1.97
2018-11-20T20:49:42.770Z,1.88
2018-11-20T20:52:29.945Z,1.90
2018-11-20T20:55:36.452Z,1.83
2018-11-20T20:58:23.275Z,1.82
2018-11-20T21:01:10.391Z,1.64
2018-11-20T21:03:59.378Z,1.63
2018-11-20T21:06:46.475Z,1.64
2018-11-20T21:09:33.703Z,1.58
2018-11-20T21:12:20.912Z,1.63
2018-11-20T21:15:08.071Z,1.57
2018-11-20T21:17:49.319Z,1.60
2018-11-20T21:20:37.172Z,1.61
2018-11-20T21:23:24.838Z,1.49
2018-11-20T21:26:12.270Z,1.43
2018-11-20T21:28:59.337Z,1.42
2018-11-20T21:31:46.848Z,1.48
2018-11-20T21:34:55.314Z,1.37
2018-11-20T21:37:40.595Z,1.40
2018-11-20T21:40:27.697Z,1.48
2018-11-20T21:43:25.795Z,1.52
2018-11-20T21:46:31.816Z,1.56
2018-11-20T21:49:38.121Z,1.52
2018-11-20T21:52:25.239Z,1.51
2018-11-20T21:55:13.830Z,1.54
2018-11-20T21:58:01.560Z,1.47
2018-11-20T22:00:51.128Z,1.40
2018-11-20T22:03:38.195Z,1.39
2018-11-20T22:06:25.365Z,1.32
2018-11-20T22:09:31.354Z,1.33
2018-11-20T22:12:18.486Z,1.32
2018-11-20T22:15:24.562Z,1.27
2018-11-20T22:18:12.471Z,1.18
2018-11-20T22:20:59.599Z,1.16
2018-11-20T22:23:46.954Z,1.05
2018-11-20T22:26:50.407Z,1.06
2018-11-20T22:29:56.461Z,1.05
2018-11-20T22:32:43.545Z,1.06
2018-11-20T22:35:30.742Z,1.02
2018-11-20T22:38:36.809Z,1.00
2018-11-20T22:41:42.870Z,1.01
2018-11-20T22:44:29.951Z,0.92
2018-11-20T22:47:17.561Z,0.60
2018-11-20T22:50:23.592Z,0.42
2018-11-20T22:53:11.052Z,0.34
2018-11-20T22:55:58.246Z,0.41
2018-11-20T22:58:46.138Z,0.46
2018-11-20T23:01:35.518Z,0.40
2018-11-20T23:04:22.736Z,0.48
2018-11-20T23:07:10.692Z,0.58
2018-11-20T23:09:58.354Z,0.62
2018-11-20T23:12:26.648Z,0.57
2018-11-20T23:15:14.936Z,0.60
2018-11-20T23:17:43.591Z,0.67
2018-11-20T23:20:12.988Z,0.64
2018-11-20T23:23:00.273Z,0.67
2018-11-20T23:25:28.666Z,0.75
2018-11-20T23:28:16.726Z,0.73
2018-11-20T23:31:04.354Z,0.79
2018-11-20T23:33:52.055Z,0.78
2018-11-20T23:36:20.425Z,0.89
2018-11-20T23:38:48.758Z,0.80
2018-11-20T23:41:17.378Z,0.82
2018-11-20T23:43:45.823Z,0.83
2018-11-20T23:46:14.604Z,0.74
2018-11-20T23:48:43.075Z,0.70
2018-11-20T23:51:11.760Z,0.68
2018-11-20T23:53:40.100Z,0.57
2018-11-20T23:56:09.909Z,0.62
2018-11-20T23:58:38.309Z,0.55
